createdAt,value
2019-06-08T00:00:08.276Z,21.10
2019-06-08T00:02:37.094Z,21.10
2019-06-08T00:05:06.941Z,21.00
2019-06-08T00:07:35.735Z,21.00
2019-06-08T00:10:06.454Z,21.00
2019-06-08T00:12:35.199Z,21.00
2019-06-08T00:15:06.164Z,21.00
2019-06-08T00:17:38.915Z,21.00
2019-06-08T00:20:09.432Z,21.00
2019-06-08T00:22:38.312Z,20.90
2019-06-08T00:25:08.699Z,20.90
2019-06-08T00:27:37.613Z,21.00
2019-06-08T00:30:10.041Z,21.00
2019-06-08T00:32:38.823Z,21.00
2019-06-08T00:35:09.067Z,20.90
2019-06-08T00:37:37.883Z,20.90
2019-06-08T00:40:08.041Z,20.90
2019-06-08T00:42:36.851Z,20.90
2019-06-08T00:45:09.663Z,20.90
2019-06-08T00:47:47.709Z,20.70
2019-06-08T00:50:09.538Z,20.70
2019-06-08T00:52:38.402Z,20.60
2019-06-08T00:55:07.439Z,20.50
2019-06-08T00:57:36.239Z,20.50
2019-06-08T01:00:11.484Z,20.50
2019-06-08T01:02:39.664Z,20.50
2019-06-08T01:05:08.966Z,20.50
2019-06-08T01:07:37.756Z,20.50
2019-06-08T01:10:08.217Z,20.50
2019-06-08T01:12:37.084Z,20.50
2019-06-08T01:15:09.759Z,20.50
2019-06-08T01:17:38.841Z,20.50
2019-06-08T01:20:08.249Z,20.50
2019-06-08T01:22:37.067Z,20.50
2019-06-08T01:25:06.652Z,20.60
2019-06-08T01:27:35.427Z,20.60
2019-06-08T01:30:07.267Z,20.60
2019-06-08T01:32:36.176Z,20.60
2019-06-08T01:35:06.211Z,20.60
2019-06-08T01:37:35.031Z,20.60
2019-06-08T01:40:06.319Z,20.70
2019-06-08T01:42:35.151Z,20.60
2019-06-08T01:45:05.577Z,20.60
2019-06-08T01:47:34.395Z,20.70
2019-06-08T01:50:03.275Z,20.80
2019-06-08T01:52:32.968Z,20.80
2019-06-08T01:55:01.840Z,20.80
2019-06-08T01:57:31.548Z,20.80
2019-06-08T02:00:28.848Z,20.80
2019-06-08T02:02:32.052Z,20.70
2019-06-08T02:05:00.938Z,20.70
2019-06-08T02:07:30.412Z,20.80
2019-06-08T02:09:59.346Z,20.80
2019-06-08T02:12:28.868Z,20.80
2019-06-08T02:14:57.856Z,20.80
2019-06-08T02:17:27.338Z,20.90
2019-06-08T02:19:56.149Z,21.20
2019-06-08T02:22:25.001Z,21.50
2019-06-08T02:24:53.775Z,21.80
2019-06-08T02:27:22.547Z,22.00
2019-06-08T02:29:51.364Z,22.20
2019-06-08T02:32:20.222Z,22.40
2019-06-08T02:34:49.189Z,22.70
2019-06-08T02:37:18.006Z,23.30
2019-06-08T02:39:46.780Z,23.90
2019-06-08T02:42:15.565Z,24.50
2019-06-08T02:44:44.410Z,24.90
2019-06-08T02:47:16.369Z,25.30
2019-06-08T02:49:43.636Z,25.70
2019-06-08T02:52:13.453Z,25.90
2019-06-08T02:54:43.165Z,26.10
2019-06-08T02:57:13.182Z,26.50
2019-06-08T02:59:43.383Z,26.90
2019-06-08T03:02:13.146Z,27.30
2019-06-08T03:04:41.933Z,27.60
2019-06-08T03:07:11.171Z,28.10
2019-06-08T03:09:41.078Z,28.40
2019-06-08T03:12:10.114Z,28.50
2019-06-08T03:14:42.148Z,28.50
2019-06-08T03:17:11.064Z,28.50
2019-06-08T03:19:40.388Z,28.60
2019-06-08T03:22:11.158Z,29.00
2019-06-08T03:24:41.436Z,29.50
2019-06-08T03:27:10.687Z,29.90
2019-06-08T03:29:41.319Z,30.10
2019-06-08T03:32:09.906Z,30.20
2019-06-08T03:34:46.808Z,30.60
2019-06-08T03:37:09.303Z,31.10
2019-06-08T03:39:38.923Z,31.40
2019-06-08T03:42:07.993Z,31.70
2019-06-08T03:44:38.309Z,31.70
2019-06-08T03:47:07.305Z,32.20
2019-06-08T03:49:43.078Z,32.70
2019-06-08T03:52:06.526Z,33.40
2019-06-08T03:54:36.147Z,34.10
2019-06-08T03:57:05.797Z,34.20
2019-06-08T03:59:35.970Z,33.90
2019-06-08T04:02:05.246Z,33.60
2019-06-08T04:04:34.058Z,33.40
2019-06-08T04:07:02.830Z,33.40
2019-06-08T04:09:31.634Z,33.60
2019-06-08T04:12:00.459Z,34.00
2019-06-08T04:14:29.248Z,34.10
2019-06-08T04:16:57.967Z,34.10
2019-06-08T04:19:26.790Z,34.20
2019-06-08T04:21:55.657Z,34.50
2019-06-08T04:24:24.394Z,34.10
2019-06-08T04:26:53.199Z,33.70
2019-06-08T04:29:22.027Z,33.70
2019-06-08T04:31:50.830Z,33.80
2019-06-08T04:34:19.575Z,34.70
2019-06-08T04:36:50.343Z,35.40
2019-06-08T04:39:19.043Z,36.00
2019-06-08T04:41:47.840Z,36.50
2019-06-08T04:44:16.674Z,36.70
2019-06-08T04:46:47.145Z,37.10
2019-06-08T04:49:15.931Z,37.40
2019-06-08T04:51:45.321Z,37.40
2019-06-08T04:54:15.242Z,37.40
2019-06-08T04:56:44.876Z,37.30
2019-06-08T04:59:13.820Z,37.20
2019-06-08T05:01:43.066Z,37.40
2019-06-08T05:04:11.887Z,37.50
2019-06-08T05:06:41.006Z,37.80
2019-06-08T05:09:09.962Z,38.10
2019-06-08T05:11:39.147Z,38.40
2019-06-08T05:14:08.054Z,38.60
2019-06-08T05:16:36.874Z,38.80
2019-06-08T05:19:05.681Z,39.00
2019-06-08T05:21:34.559Z,39.50
2019-06-08T05:24:03.333Z,39.90
2019-06-08T05:26:32.211Z,40.40
2019-06-08T05:29:01.086Z,40.10
2019-06-08T05:31:29.877Z,39.90
2019-06-08T05:33:58.646Z,39.70
2019-06-08T05:36:27.449Z,39.30
2019-06-08T05:38:56.191Z,39.50
2019-06-08T05:41:25.030Z,39.90
2019-06-08T05:43:53.807Z,39.70
2019-06-08T05:46:22.639Z,40.00
2019-06-08T05:48:51.417Z,40.50
2019-06-08T05:51:20.263Z,40.60
2019-06-08T05:53:50.176Z,40.20
2019-06-08T05:56:19.187Z,40.30
2019-06-08T05:58:48.180Z,39.90
2019-06-08T06:01:16.910Z,40.10
2019-06-08T06:03:46.558Z,40.40
2019-06-08T06:06:15.412Z,40.90
2019-06-08T06:08:44.674Z,41.50
2019-06-08T06:11:13.486Z,41.60
2019-06-08T06:13:42.713Z,42.20
2019-06-08T06:16:11.702Z,42.20
2019-06-08T06:18:40.934Z,42.20
2019-06-08T06:21:12.130Z,42.00
2019-06-08T06:23:41.139Z,41.90
2019-06-08T06:26:10.072Z,41.80
2019-06-08T06:28:38.975Z,41.90
2019-06-08T06:31:07.798Z,41.10
2019-06-08T06:33:36.581Z,40.40
2019-06-08T06:36:05.380Z,40.70
2019-06-08T06:38:34.235Z,40.80
2019-06-08T06:41:03.097Z,40.80
2019-06-08T06:43:31.938Z,41.00
2019-06-08T06:46:00.804Z,41.50
2019-06-08T06:48:29.585Z,41.40
2019-06-08T06:50:58.324Z,40.80
2019-06-08T06:53:27.103Z,40.50
2019-06-08T06:55:55.880Z,40.60
2019-06-08T06:58:24.739Z,40.60
2019-06-08T07:00:53.813Z,40.50
2019-06-08T07:03:22.704Z,40.40
2019-06-08T07:05:51.982Z,40.70
2019-06-08T07:08:20.790Z,41.30
2019-06-08T07:10:50.812Z,41.50
2019-06-08T07:13:19.792Z,41.60
2019-06-08T07:15:51.545Z,40.90
2019-06-08T07:18:19.092Z,40.30
2019-06-08T07:20:48.176Z,40.20
2019-06-08T07:23:17.058Z,40.50
2019-06-08T07:25:46.289Z,41.20
2019-06-08T07:28:15.159Z,41.30
2019-06-08T07:30:43.951Z,40.70
2019-06-08T07:33:12.763Z,40.00
2019-06-08T07:35:41.708Z,39.60
2019-06-08T07:38:10.498Z,39.10
2019-06-08T07:40:39.339Z,38.80
2019-06-08T07:43:08.243Z,38.90
2019-06-08T07:45:40.643Z,38.70
2019-06-08T07:48:09.107Z,38.90
2019-06-08T07:50:38.033Z,39.00
2019-06-08T07:53:06.822Z,39.10
2019-06-08T07:55:35.712Z,39.30
2019-06-08T07:58:04.680Z,39.50
2019-06-08T08:00:33.436Z,39.80
2019-06-08T08:03:02.308Z,40.00
2019-06-08T08:05:31.246Z,40.00
2019-06-08T08:08:00.014Z,40.10
2019-06-08T08:10:28.901Z,40.10
2019-06-08T08:12:58.957Z,40.10
2019-06-08T08:15:27.956Z,40.40
2019-06-08T08:17:57.701Z,40.40
2019-06-08T08:20:26.636Z,40.40
2019-06-08T08:22:58.844Z,40.40
2019-06-08T08:25:28.026Z,40.20
2019-06-08T08:27:59.048Z,39.80
2019-06-08T08:30:28.437Z,39.20
2019-06-08T08:33:01.692Z,39.30
2019-06-08T08:35:28.086Z,39.30
2019-06-08T08:38:02.225Z,39.10
2019-06-08T08:40:28.216Z,38.80
2019-06-08T08:42:58.705Z,38.60
2019-06-08T08:45:27.705Z,38.60
2019-06-08T08:48:16.039Z,38.20
2019-06-08T08:50:28.326Z,37.60
2019-06-08T08:53:00.395Z,36.70
2019-06-08T08:55:28.021Z,35.60
2019-06-08T08:57:59.057Z,34.40
2019-06-08T09:00:28.108Z,33.30
2019-06-08T09:03:18.701Z,32.40
2019-06-08T09:05:28.134Z,31.90
2019-06-08T09:07:58.808Z,31.40
2019-06-08T09:10:28.082Z,31.20
2019-06-08T09:13:00.578Z,31.10
2019-06-08T09:15:31.131Z,30.90
2019-06-08T09:18:01.028Z,30.80
2019-06-08T09:20:29.375Z,30.70
2019-06-08T09:23:06.777Z,30.70
2019-06-08T09:25:28.740Z,30.60
2019-06-08T09:28:01.271Z,30.50
2019-06-08T09:30:29.195Z,30.30
2019-06-08T09:33:00.600Z,30.40
2019-06-08T09:35:28.360Z,30.30
2019-06-08T09:38:00.829Z,30.00
2019-06-08T09:40:31.916Z,29.90
2019-06-08T09:43:05.408Z,29.80
2019-06-08T09:45:29.056Z,29.80
2019-06-08T09:48:00.399Z,29.70
2019-06-08T09:50:28.451Z,29.80
2019-06-08T09:53:14.929Z,29.80
2019-06-08T09:55:28.829Z,29.80
2019-06-08T09:58:02.506Z,29.80
2019-06-08T10:00:29.520Z,29.80
2019-06-08T10:03:02.197Z,29.80
2019-06-08T10:05:29.059Z,29.80
2019-06-08T10:08:00.465Z,29.80
2019-06-08T10:10:28.425Z,29.90
2019-06-08T10:13:01.278Z,30.10
2019-06-08T10:15:27.925Z,30.20
2019-06-08T10:17:56.918Z,30.30
2019-06-08T10:20:25.702Z,30.30
2019-06-08T10:25:31.464Z,30.30
2019-06-08T10:28:09.837Z,30.40
2019-06-08T10:30:33.864Z,30.50
2019-06-08T10:33:07.113Z,30.50
2019-06-08T10:35:38.253Z,30.50
2019-06-08T10:38:11.652Z,30.40
2019-06-08T10:40:42.487Z,30.30
2019-06-08T10:43:12.947Z,30.30
2019-06-08T10:45:43.602Z,30.20
2019-06-08T10:48:17.903Z,30.20
2019-06-08T10:50:48.479Z,30.10
2019-06-08T10:53:20.105Z,29.90
2019-06-08T10:55:50.366Z,29.70
2019-06-08T10:58:21.727Z,29.50
2019-06-08T11:01:13.162Z,29.40
2019-06-08T11:03:41.836Z,29.40
2019-06-08T11:06:12.933Z,29.60
2019-06-08T11:08:41.078Z,29.70
2019-06-08T11:11:11.930Z,29.80
2019-06-08T11:13:40.316Z,29.80
2019-06-08T11:16:12.728Z,29.70
2019-06-08T11:18:39.621Z,29.60
2019-06-08T11:24:38.810Z,29.90
2019-06-08T11:27:10.492Z,29.90
2019-06-08T11:29:38.375Z,29.70
2019-06-08T11:32:10.927Z,29.50
2019-06-08T11:34:37.953Z,29.50
2019-06-08T11:37:11.447Z,29.40
2019-06-08T11:39:38.389Z,29.40
2019-06-08T11:42:10.694Z,29.40
2019-06-08T11:44:39.040Z,29.40
2019-06-08T11:47:11.319Z,29.40
2019-06-08T11:49:38.597Z,29.40
2019-06-08T11:52:08.912Z,29.30
2019-06-08T11:54:40.883Z,29.30
2019-06-08T11:57:11.105Z,29.30
2019-06-08T11:59:40.366Z,29.30
2019-06-08T12:02:12.224Z,29.40
2019-06-08T12:04:40.309Z,29.50
2019-06-08T12:07:10.785Z,29.50
2019-06-08T12:09:39.713Z,29.60
2019-06-08T12:12:13.095Z,29.60
2019-06-08T12:14:40.513Z,29.70
2019-06-08T12:17:13.467Z,29.60
2019-06-08T12:19:40.011Z,29.60
2019-06-08T12:22:10.338Z,29.70
2019-06-08T12:24:42.308Z,29.80
2019-06-08T12:27:22.475Z,29.80
2019-06-08T12:29:40.234Z,29.70
2019-06-08T12:32:10.797Z,29.70
2019-06-08T12:34:39.442Z,29.80
2019-06-08T12:37:13.422Z,29.80
2019-06-08T12:39:38.870Z,29.80
2019-06-08T12:42:09.635Z,29.70
2019-06-08T12:44:38.474Z,29.70
2019-06-08T12:47:12.615Z,29.60
2019-06-08T12:49:39.926Z,29.60
2019-06-08T12:52:10.011Z,29.60
2019-06-08T12:54:38.765Z,29.70
2019-06-08T12:57:10.642Z,29.70
2019-06-08T12:59:38.456Z,29.70
2019-06-08T13:02:14.830Z,29.70
2019-06-08T13:04:39.778Z,29.70
2019-06-08T13:07:10.122Z,29.90
2019-06-08T13:09:38.999Z,30.00
2019-06-08T13:12:09.556Z,30.10
2019-06-08T13:14:38.652Z,30.10
2019-06-08T13:17:08.750Z,30.10
2019-06-08T13:19:38.770Z,30.10
2019-06-08T13:22:09.000Z,30.10
2019-06-08T13:24:37.940Z,29.90
2019-06-08T13:27:06.998Z,29.70
2019-06-08T13:29:35.702Z,29.50
2019-06-08T13:32:04.484Z,29.40
2019-06-08T13:34:33.321Z,29.40
2019-06-08T13:37:02.129Z,29.40
2019-06-08T13:39:30.915Z,29.40
2019-06-08T13:41:59.682Z,29.40
2019-06-08T13:44:28.705Z,29.30
2019-06-08T13:46:57.936Z,29.30
2019-06-08T13:49:30.377Z,29.30
2019-06-08T13:51:58.445Z,29.30
2019-06-08T13:54:30.818Z,29.30
2019-06-08T13:56:59.005Z,29.10
2019-06-08T13:59:30.830Z,29.00
2019-06-08T14:01:58.485Z,28.80
2019-06-08T14:04:27.298Z,28.80
2019-06-08T14:06:57.941Z,28.80
2019-06-08T14:09:30.982Z,28.80
2019-06-08T14:11:57.832Z,28.70
2019-06-08T14:14:28.863Z,28.70
2019-06-08T14:16:58.756Z,28.70
2019-06-08T14:19:29.678Z,28.70
2019-06-08T14:21:58.039Z,28.60
2019-06-08T14:24:32.483Z,28.60
2019-06-08T14:26:58.484Z,28.60
2019-06-08T14:29:28.884Z,28.70
2019-06-08T14:31:58.093Z,28.60
2019-06-08T14:34:29.065Z,28.50
2019-06-08T14:36:59.202Z,28.40
2019-06-08T14:39:31.038Z,28.40
2019-06-08T14:41:58.229Z,28.30
2019-06-08T14:44:31.294Z,28.30
2019-06-08T14:46:58.034Z,28.30
2019-06-08T14:49:32.777Z,28.30
2019-06-08T14:51:57.940Z,28.30
2019-06-08T14:54:32.793Z,28.30
2019-06-08T14:56:57.912Z,28.30
2019-06-08T14:59:29.600Z,28.30
2019-06-08T15:01:57.184Z,28.20
2019-06-08T15:04:28.522Z,28.20
2019-06-08T15:06:58.423Z,28.10
2019-06-08T15:09:27.641Z,28.10
2019-06-08T15:11:58.146Z,28.10
2019-06-08T15:14:32.644Z,28.00
2019-06-08T15:16:59.007Z,28.00
2019-06-08T15:19:30.410Z,27.90
2019-06-08T15:21:58.636Z,27.90
2019-06-08T15:24:29.796Z,27.90
2019-06-08T15:26:58.286Z,28.00
2019-06-08T15:29:29.067Z,28.20
2019-06-08T15:31:58.183Z,28.30
2019-06-08T15:34:29.660Z,28.20
2019-06-08T15:40:29.871Z,28.10
2019-06-08T15:42:58.722Z,28.00
2019-06-08T15:45:31.287Z,27.90
2019-06-08T15:47:59.740Z,27.90
2019-06-08T15:50:28.619Z,27.90
2019-06-08T15:52:59.807Z,27.80
2019-06-08T15:55:31.228Z,27.80
2019-06-08T15:57:58.693Z,27.80
2019-06-08T16:00:30.019Z,27.70
2019-06-08T16:02:58.658Z,27.70
2019-06-08T16:05:27.786Z,27.70
2019-06-08T16:07:56.808Z,27.70
2019-06-08T16:10:26.315Z,27.60
2019-06-08T16:12:55.267Z,27.70
2019-06-08T16:15:24.861Z,27.60
2019-06-08T16:17:53.694Z,27.60
2019-06-08T16:20:22.463Z,27.60
2019-06-08T16:22:51.299Z,27.60
2019-06-08T16:25:20.117Z,27.60
2019-06-08T16:27:48.913Z,27.60
2019-06-08T16:30:17.761Z,27.60
2019-06-08T16:32:49.650Z,27.60
2019-06-08T16:35:18.467Z,27.60
2019-06-08T16:37:48.764Z,27.70
2019-06-08T16:40:17.528Z,27.70
2019-06-08T16:42:46.290Z,27.80
2019-06-08T16:45:15.643Z,27.80
2019-06-08T16:47:44.504Z,27.80
2019-06-08T16:50:23.928Z,27.80
2019-06-08T16:52:43.985Z,27.80
2019-06-08T16:55:12.873Z,27.80
2019-06-08T16:57:41.660Z,27.80
2019-06-08T17:00:30.327Z,27.70
2019-06-08T17:02:41.541Z,27.60
2019-06-08T17:05:10.426Z,27.50
2019-06-08T17:07:39.757Z,27.40
2019-06-08T17:10:08.961Z,27.20
2019-06-08T17:12:39.009Z,27.10
2019-06-08T17:15:08.231Z,27.00
2019-06-08T17:17:38.467Z,26.90
2019-06-08T17:20:08.028Z,26.80
2019-06-08T17:22:40.919Z,26.70
2019-06-08T17:25:09.912Z,26.60
2019-06-08T17:27:39.007Z,26.60
2019-06-08T17:30:08.938Z,26.60
2019-06-08T17:32:38.509Z,26.50
2019-06-08T17:35:08.398Z,26.50
2019-06-08T17:37:38.013Z,26.40
2019-06-08T17:40:07.240Z,26.40
2019-06-08T17:42:37.744Z,26.40
2019-06-08T17:45:09.539Z,26.40
2019-06-08T17:47:38.585Z,26.30
2019-06-08T17:50:08.311Z,26.30
2019-06-08T17:52:37.248Z,26.30
2019-06-08T17:55:07.025Z,26.20
2019-06-08T17:57:44.482Z,26.20
2019-06-08T18:00:07.728Z,26.20
2019-06-08T18:02:39.851Z,26.10
2019-06-08T18:05:07.877Z,26.10
2019-06-08T18:07:40.001Z,26.10
2019-06-08T18:10:07.510Z,26.00
2019-06-08T18:12:39.687Z,26.00
2019-06-08T18:15:09.100Z,26.00
2019-06-08T18:17:42.070Z,25.90
2019-06-08T18:26:50.020Z,25.80
2019-06-08T18:29:18.881Z,25.70
2019-06-08T18:31:48.085Z,25.70
2019-06-08T18:34:17.811Z,25.70
2019-06-08T18:36:48.259Z,25.70
2019-06-08T18:39:18.356Z,25.60
2019-06-08T18:41:48.420Z,25.60
2019-06-08T18:44:17.528Z,25.60
2019-06-08T18:46:48.234Z,25.50
2019-06-08T18:53:07.127Z,25.50
2019-06-08T18:55:38.733Z,25.40
2019-06-08T18:58:20.120Z,25.40
2019-06-08T19:00:43.024Z,25.30
2019-06-08T19:03:09.598Z,25.20
2019-06-08T19:05:42.282Z,25.20
2019-06-08T19:08:10.591Z,25.20
2019-06-08T19:10:41.111Z,25.20
2019-06-08T19:13:10.498Z,25.10
2019-06-08T19:15:42.878Z,25.10
2019-06-08T19:18:09.999Z,25.10
2019-06-08T19:20:43.086Z,25.10
2019-06-08T19:23:09.619Z,25.10
2019-06-08T19:25:42.196Z,25.10
2019-06-08T19:28:09.203Z,25.10
2019-06-08T19:30:40.474Z,25.00
2019-06-08T19:33:08.402Z,25.00
2019-06-08T19:35:37.659Z,25.10
2019-06-08T19:38:07.848Z,25.10
2019-06-08T19:40:38.808Z,25.10
2019-06-08T19:43:07.536Z,25.10
2019-06-08T19:45:39.629Z,25.10
2019-06-08T19:48:08.318Z,25.10
2019-06-08T19:50:38.652Z,25.10
2019-06-08T19:53:07.737Z,25.10
2019-06-08T19:55:36.535Z,25.00
2019-06-08T19:58:06.313Z,25.00
2019-06-08T20:00:38.658Z,25.00
2019-06-08T20:03:07.659Z,25.00
2019-06-08T20:05:37.797Z,24.90
2019-06-08T20:08:08.016Z,24.90
2019-06-08T20:10:37.223Z,24.90
2019-06-08T20:13:07.821Z,24.90
2019-06-08T20:15:40.679Z,24.80
2019-06-08T20:18:07.121Z,24.80
2019-06-08T20:20:38.007Z,24.70
2019-06-08T20:23:09.565Z,24.70
2019-06-08T20:25:38.180Z,24.60
2019-06-08T20:28:07.906Z,24.50
2019-06-08T20:30:37.017Z,24.50
2019-06-08T20:33:08.018Z,24.40
2019-06-08T20:35:38.280Z,24.40
2019-06-08T20:38:08.329Z,24.30
2019-06-08T20:40:38.368Z,24.20
2019-06-08T20:43:07.395Z,24.20
2019-06-08T20:45:37.503Z,24.20
2019-06-08T20:48:06.581Z,24.10
2019-06-08T20:50:37.653Z,24.10
2019-06-08T20:53:08.138Z,24.10
2019-06-08T20:55:40.021Z,24.10
2019-06-08T20:58:08.017Z,24.00
2019-06-08T21:00:37.817Z,24.00
2019-06-08T21:03:08.140Z,24.00
2019-06-08T21:05:37.266Z,24.00
2019-06-08T21:08:08.191Z,24.00
2019-06-08T21:10:37.754Z,23.90
2019-06-08T21:13:07.281Z,23.90
2019-06-08T21:15:38.176Z,23.90
2019-06-08T21:18:07.920Z,23.90
2019-06-08T21:20:40.192Z,23.90
2019-06-08T21:23:09.068Z,23.90
2019-06-08T21:25:40.260Z,23.90
2019-06-08T21:28:09.219Z,23.90
2019-06-08T21:30:38.059Z,23.80
2019-06-08T21:33:08.355Z,23.70
2019-06-08T21:35:37.355Z,23.70
2019-06-08T21:38:20.270Z,23.60
2019-06-08T21:40:37.617Z,23.60
2019-06-08T21:43:08.113Z,23.50
2019-06-08T21:45:38.058Z,23.50
2019-06-08T21:48:07.571Z,23.50
2019-06-08T21:50:37.087Z,23.50
2019-06-08T21:53:07.728Z,23.50
2019-06-08T21:55:38.114Z,23.50
2019-06-08T21:58:08.087Z,23.50
2019-06-08T22:00:42.969Z,23.40
2019-06-08T22:03:08.626Z,23.30
2019-06-08T22:05:38.224Z,23.30
2019-06-08T22:08:08.005Z,23.10
2019-06-08T22:10:37.676Z,23.10
2019-06-08T22:13:08.671Z,23.00
2019-06-08T22:15:38.059Z,23.00
2019-06-08T22:18:07.982Z,23.00
2019-06-08T22:20:38.312Z,22.90
2019-06-08T22:23:07.507Z,22.90
2019-06-08T22:25:38.512Z,22.80
2019-06-08T22:28:07.244Z,22.80
2019-06-08T22:30:42.582Z,22.70
2019-06-08T22:33:06.762Z,22.60
2019-06-08T22:35:37.293Z,22.60
2019-06-08T22:38:08.428Z,22.50
2019-06-08T22:40:37.100Z,22.50
2019-06-08T22:43:08.076Z,22.50
2019-06-08T22:45:37.444Z,22.40
2019-06-08T22:48:08.289Z,22.40
2019-06-08T22:50:38.236Z,22.40
2019-06-08T22:53:08.059Z,22.30
2019-06-08T22:55:38.215Z,22.30
2019-06-08T22:58:07.795Z,22.30
2019-06-08T23:00:51.770Z,22.30
2019-06-08T23:03:08.617Z,22.30
2019-06-08T23:05:37.899Z,22.20
2019-06-08T23:08:09.353Z,22.30
2019-06-08T23:10:37.553Z,22.30
2019-06-08T23:13:08.548Z,22.30
2019-06-08T23:15:39.840Z,22.30
2019-06-08T23:18:09.444Z,22.30
2019-06-08T23:20:38.555Z,22.30
2019-06-08T23:23:08.910Z,22.30
2019-06-08T23:25:37.979Z,22.30
2019-06-08T23:28:09.681Z,22.40
2019-06-08T23:30:38.215Z,22.50
2019-06-08T23:33:11.300Z,22.40
2019-06-08T23:36:07.890Z,22.40
2019-06-08T23:38:09.496Z,22.30
2019-06-08T23:40:38.363Z,22.30
2019-06-08T23:43:08.238Z,22.30
2019-06-08T23:45:38.030Z,22.20
2019-06-08T23:48:07.114Z,22.20
2019-06-08T23:50:37.918Z,22.10
2019-06-08T23:53:09.113Z,22.10
2019-06-08T23:55:37.256Z,22.00
2019-06-08T23:58:09.462Z,22.00
